Copenhagen Kastrup Airport (CPH/EKCH)



Flight Aircraft Arriving
CPX915
EDDK - Cologne Bonn Airport
Germany Cologne, Germany
Flight Aircraft Departing
CPX914
EDDK - Cologne Bonn Airport
Germany Cologne, Germany


Airport Information
Location: Copenhagen,
Coordinates: 55.6179 / 12.656
Field Elevation: 17ft
Longest Runway: 11,805ft
ILS Approaches: YES
Landing Fees: $1,755 per flight
Jet A Price: $0.34/lbs

Current Weather
METAR: EKCH 070150Z AUTO 15014KT 9999 -RASN FEW017/// OVC021/// 01/M01 Q1012 NOSIG
TAF: TAF EKCH 062301Z 0700/0724 14015KT 9999 SCT015 BKN030 TEMPO 0700/0718 15018G28KT -SNRA TEMPO 0718/0724 15018G28KT -SNRA BKN012

Recent Arrivals
Date Flight Type Depart
10/31/2021 CPX914 A31F Cologne Bonn Airport (EDDK)
09/30/2021 CPX914 A30F Cologne Bonn Airport (EDDK)
Recent Departures
Date Flight Type Arrive
12/01/2021 CPX915 A31F Cologne Bonn Airport (EDDK)
09/30/2021 CPX915 A30F Cologne Bonn Airport (EDDK)